Latest Coastal Weather Observations for Derby

IDW60701

Issued at 11:12 pm WST Friday 1 July 2016 (issued every 10 minutes, with the page automatically refreshed every 10 minutes)

About coastal observations | Map of coastal stations | Coastal observations for WA | Marine services | Other Formats
Station Details ID: 003032 Name: DERBY AERO Lat: -17.37 Lon: 123.66 Height: 6.2 m
Data from the previous 72 hours. | See also: Recent months at Derby
Date/Time
WST
Temp
°C
Wind Pressure Rain since
9am
mm
Weather Cloud Vis
km
Sea
Height
m
Swell
Dir  Spd
kts
Gust
kts
hPa Trend Height
m
Period
s
Dir
01/11:00pm 19.5 CALM 0 0 1015.6 - 0.0 - - - - - - -
01/10:30pm 19.4 CALM 0 0 1015.6 - 0.0 - - - - - - -
01/10:00pm 20.7 CALM 0 0 1015.8 - 0.0 - - - - - - -
01/09:30pm 20.7 CALM 0 0 1015.8 - 0.0 - - - - - - -
01/09:00pm 21.3 CALM 0 0 1015.8 - 0.0 - - - - - - -
01/08:30pm 22.8 CALM 0 0 1015.6 - 0.0 - - - - - - -
01/08:00pm 22.6 CALM 0 0 1015.4 - 0.0 - - - - - - -
01/07:30pm 25.3 WNW 2 3 1015.2 - 0.0 - - - - - - -
01/07:00pm 24.7 NNW 3 5 1014.8 - 0.0 - - - - - - -
01/06:30pm 25.7 NNW 4 5 1014.5 - 0.0 - - - - - - -
01/06:00pm 26.5 NW 4 5 1014.2 - 0.0 - - - - - - -
01/05:30pm 27.4 NW 6 6 1014.0 - 0.0 - - - - - - -
01/05:00pm 29.6 WNW 7 8 1013.7 - 0.0 - - - - - - -
01/04:30pm 30.5 NW 8 9 1013.4 - 0.0 - - - - - - -
01/04:00pm 30.9 NW 9 10 1013.1 - 0.0 - - - - - - -
01/03:30pm 31.4 NW 9 11 1013.0 - 0.0 - - - - - - -
01/03:00pm 32.0 NW 9 12 1013.0 - 0.0 - - - - - - -
01/02:30pm 31.6 NW 10 14 1013.2 - 0.0 - - - - - - -
01/02:00pm 31.1 WNW 12 15 1013.4 - 0.0 - - - - - - -
01/01:30pm 31.8 WNW 11 15 1013.6 - 0.0 - - - - - - -
01/01:00pm 32.2 N 7 13 1013.7 - 0.0 - - - - - - -
01/12:30pm 32.4 ENE 7 10 1013.9 - 0.0 - - - - - - -
01/12:00pm 31.3 CALM 0 0 1014.4 - 0.0 - - - - - - -
01/11:30am 31.1 N 1 9 1014.9 - 0.0 - - - - - - -
01/11:00am 30.7 N 5 10 1015.5 - 0.0 - - - - - - -
01/10:30am 29.9 NE 5 9 1015.7 - 0.0 - - - - - - -
01/10:00am 29.3 NNE 6 9 1016.2 - 0.0 - - - - - - -
01/09:30am 27.8 N 4 7 1016.7 - 0.0 - - - - - - -
01/09:00am 26.6 N 5 7 1016.8 - 0.0 - - - - - - -
01/08:30am 24.7 NNE 5 6 1016.7 - 0.0 - - - - - - -
01/08:00am 23.4 NE 5 6 1016.6 - 0.0 - - - - - - -
01/07:30am 21.5 ENE 5 7 1016.2 - 0.0 - - - - - - -
01/07:00am 19.4 ENE 5 7 1016.0 - 0.0 - - - - - - -
01/06:30am 18.0 ENE 6 7 1015.6 - 0.0 - - - - - - -
01/06:00am 18.1 NE 5 6 1015.4 - 0.0 - - - - - - -
01/05:30am 18.1 CALM 0 0 1015.1 - 0.0 - - - - - - -
01/05:00am 19.6 CALM 0 0 1015.0 - 0.0 - - - - - - -
01/04:30am 20.4 E 5 6 1014.7 - 0.0 - - - - - - -
01/04:00am 19.8 SE 5 6 1014.9 - 0.0 - - - - - - -
01/03:30am 20.8 SE 5 6 1014.7 - 0.0 - - - - - - -
01/03:00am 22.0 SSE 7 8 1014.8 - 0.0 - - - - - - -
01/02:30am 23.0 SSE 6 7 1014.7 - 0.0 - - - - - - -
01/02:00am 23.6 SSE 5 6 1014.8 - 0.0 - - - - - - -
01/01:30am 24.0 SSE 5 6 1014.9 - 0.0 - - - - - - -
01/01:00am 24.1 SSE 5 6 1015.1 - 0.0 - - - - - - -
01/12:30am 24.5 SSW 5 7 1015.3 - 0.0 - - - - - - -
01/12:00am 24.3 W 2 4 1015.6 - 0.0 - - - - - - -
 
Date/Time
WST
Temp
°C
Wind Pressure Rain since
9am
mm
Weather Cloud Vis
km
Sea
Height
m
Swell
Dir  Spd
kts
Gust
kts
hPa Trend Height
m
Period
s
Dir
30/11:30pm 24.6 N 1 3 1015.6 - 0.0 - - - - - - -
30/11:00pm 24.9 N 3 4 1015.6 - 0.0 - - - - - - -
30/10:30pm 25.0 N 4 5 1015.7 - 0.0 - - - - - - -
30/10:00pm 25.2 NW 4 5 1015.6 - 0.0 - - - - - - -
30/09:30pm 25.3 N 4 5 1015.5 - 0.0 - - - - - - -
30/09:00pm 25.1 N 5 5 1015.3 - 0.0 - - - - - - -
30/08:30pm 26.4 N 5 8 1015.3 - 0.0 - - - - - - -
30/08:00pm 24.0 S 1 3 1014.9 - 0.0 - - - - - - -
30/07:30pm 25.1 SSE 4 6 1014.5 - 0.0 - - - - - - -
30/07:00pm 26.0 CALM 0 0 1014.1 - 0.0 - - - - - - -
30/06:30pm 26.1 W 3 5 1013.7 - 0.0 - - - - - - -
30/06:00pm 26.8 NNW 5 7 1013.3 - 0.0 - - - - - - -
30/05:30pm 28.1 NW 5 7 1012.8 - 0.0 - - - - - - -
30/05:00pm 29.6 NW 7 9 1012.5 - 0.0 - - - - - - -
30/04:30pm 30.9 NW 9 11 1012.1 - 0.0 - - - - - - -
30/04:00pm 32.4 NW 7 11 1011.9 - 0.0 - - - - - - -
30/03:30pm 34.7 NNE 5 7 1011.8 - 0.0 - - - - - - -
30/03:00pm 33.3 SE 4 8 1011.7 - 0.0 - - - - - - -
30/02:30pm 34.8 E 6 10 1012.0 - 0.0 - - - - - - -
30/02:00pm 34.7 SE 8 13 1012.3 - 0.0 - - - - - - -
30/01:30pm 34.5 E 9 14 1012.7 - 0.0 - - - - - - -
30/01:00pm 34.4 E 9 19 1013.1 - 0.0 - - - - - - -
30/12:30pm 33.8 E 9 14 1013.6 - 0.0 - - - - - - -
30/12:00pm 33.7 E 9 17 1014.1 - 0.0 - - - - - - -
30/11:30am 32.8 ENE 2 11 1014.7 - 0.0 - - - - - - -
30/11:00am 32.5 NE 3 11 1015.1 - 0.0 - - - - - - -
30/10:30am 31.6 ENE 9 14 1015.7 - 0.0 - - - - - - -
30/10:00am 31.2 CALM 0 0 1016.0 - 0.0 - - - - - - -
30/09:30am 29.0 CALM 0 0 1016.4 - 0.0 - - - - - - -
30/09:00am 28.1 CALM 0 0 1016.7 - 0.0 - - - - - - -
30/08:30am 27.8 CALM 0 0 1016.9 - 0.0 - - - - - - -
30/08:00am 25.6 CALM 0 0 1016.8 - 0.0 - - - - - - -
30/07:30am 24.2 CALM 0 0 1016.7 - 0.0 - - - - - - -
30/07:00am 23.6 CALM 0 0 1016.5 - 0.0 - - - - - - -
30/06:30am 21.3 CALM 0 0 1016.1 - 0.0 - - - - - - -
30/06:00am 21.0 CALM 0 0 1015.8 - 0.0 - - - - - - -
30/05:30am 21.1 CALM 0 0 1015.5 - 0.0 - - - - - - -
30/05:00am 21.3 CALM 0 0 1015.3 - 0.0 - - - - - - -
30/04:30am 21.3 CALM 0 0 1015.3 - 0.0 - - - - - - -
30/04:00am 21.5 CALM 0 0 1015.3 - 0.0 - - - - - - -
30/03:30am 21.9 CALM 0 0 1015.2 - 0.0 - - - - - - -
30/03:00am 21.9 CALM 0 0 1015.4 - 0.0 - - - - - - -
30/02:30am 21.4 CALM 0 0 1015.5 - 0.0 - - - - - - -
30/02:00am 21.9 CALM 0 0 1015.9 - 0.0 - - - - - - -
30/01:30am 22.2 CALM 0 0 1016.2 - 0.0 - - - - - - -
30/01:00am 22.3 CALM 0 0 1016.6 - 0.0 - - - - - - -
30/12:30am 22.4 CALM 0 0 1016.8 - 0.0 - - - - - - -
30/12:00am 23.2 CALM 0 0 1017.1 - 0.0 - - - - - - -
 
Date/Time
WST
Temp
°C
Wind Pressure Rain since
9am
mm
Weather Cloud Vis
km
Sea
Height
m
Swell
Dir  Spd
kts
Gust
kts
hPa Trend Height
m
Period
s
Dir
29/11:30pm 24.3 CALM 0 0 1017.1 - 0.0 - - - - - - -
29/11:00pm 24.6 CALM 0 0 1017.2 - 0.0 - - - - - - -
29/10:30pm 25.0 CALM 0 0 1016.9 - 0.0 - - - - - - -
29/10:00pm 25.6 CALM 0 0 1016.9 - 0.0 - - - - - - -
29/09:30pm 25.3 CALM 0 0 1016.9 - 0.0 - - - - - - -
29/09:00pm 25.4 CALM 0 0 1016.7 - 0.0 - - - - - - -
29/08:30pm 25.5 CALM 0 0 1016.6 - 0.0 - - - - - - -
29/08:00pm 26.5 NNW 4 11 1016.3 - 0.0 - - - - - - -
29/07:30pm 26.7 NNW 9 12 1015.9 - 0.0 - - - - - - -
29/07:00pm 26.9 NNW 10 12 1015.6 - 0.0 - - - - - - -
29/06:30pm 27.8 NNW 8 10 1015.2 - 0.0 - - - - - - -
29/06:00pm 28.4 NNW 7 8 1014.8 - 0.0 - - - - - - -
29/05:30pm 29.6 NNW 8 9 1014.4 - 0.0 - - - - - - -
29/05:00pm 30.8 NNW 10 13 1014.2 - 0.0 - - - - - - -
29/04:30pm 31.6 NNW 11 13 1013.8 - 0.0 - - - - - - -
29/04:00pm 31.9 NW 11 13 1013.6 - 0.0 - - - - - - -
29/03:30pm 32.2 NW 11 13 1013.4 - 0.0 - - - - - - -
29/03:00pm 32.7 NW 10 12 1013.2 - 0.0 - - - - - - -
29/02:30pm 33.2 WNW 9 13 1013.2 - 0.0 - - - - - - -
29/02:00pm 33.3 WNW 9 12 1013.4 - 0.0 - - - - - - -
29/01:30pm 32.5 NW 8 13 1013.6 - 0.0 - - - - - - -
29/01:00pm 33.0 NW 9 13 1013.7 - 0.0 - - - - - - -
29/12:30pm 33.2 SSW 2 8 1014.2 - 0.0 - - - - - - -
29/12:00pm 32.3 CALM 0 0 1014.6 - 0.0 - - - - - - -
29/11:30am 31.8 CALM 0 0 1015.1 - 0.0 - - - - - - -
29/11:00am 31.3 WSW 2 7 1015.5 - 0.0 - - - - - - -
29/10:30am 30.6 CALM 0 0 1015.8 - 0.0 - - - - - - -
29/10:00am 29.0 CALM 0 0 1016.0 - 0.0 - - - - - - -
29/09:30am 27.4 CALM 0 0 1016.3 - 0.0 - - - - - - -
29/09:00am 26.5 CALM 0 0 1016.5 - 0.0 - - - - - - -
29/08:30am 25.5 CALM 0 0 1016.5 - 0.0 - - - - - - -
29/08:00am 24.8 CALM 0 0 1016.2 - 0.0 - - - - - - -
29/07:30am 23.6 CALM 0 0 1015.8 - 0.0 - - - - - - -
29/07:00am 21.4 CALM 0 0 1015.5 - 0.0 - - - - - - -
29/06:30am 19.3 CALM 0 0 1015.5 - 0.0 - - - - - - -
29/06:00am 19.1 CALM 0 0 1015.4 - 0.0 - - - - - - -
29/05:30am 20.4 NNE 2 4 1015.2 - 0.0 - - - - - - -
29/05:00am 19.8 NNE 3 4 1014.8 - 0.0 - - - - - - -
29/04:30am 20.8 SSE 4 5 1014.6 - 0.0 - - - - - - -
29/04:00am 21.0 CALM 0 0 1014.4 - 0.0 - - - - - - -
29/03:30am 21.5 CALM 0 0 1014.5 - 0.0 - - - - - - -
29/03:00am 22.1 S 5 6 1014.7 - 0.0 - - - - - - -
29/02:30am 22.9 S 6 7 1014.9 - 0.0 - - - - - - -
29/02:00am 23.1 CALM 0 0 1015.2 - 0.0 - - - - - - -
29/01:30am 23.5 CALM 0 0 1015.5 - 0.0 - - - - - - -
29/01:00am 23.4 CALM 0 0 1015.7 - 0.0 - - - - - - -
29/12:30am 24.2 S 3 10 1015.7 - 0.0 - - - - - - -
29/12:00am 25.2 SSE 7 8 1015.8 - 0.0 - - - - - - -
 
Date/Time
WST
Temp
°C
Wind Pressure Rain since
9am
mm
Weather Cloud Vis
km
Sea
Height
m
Swell
Dir  Spd
kts
Gust
kts
hPa Trend Height
m
Period
s
Dir
28/11:30pm 24.7 SE 7 8 1015.8 - 0.0 - - - - - - -

Other Formats:

Comma delimited format used in spreadsheet applications
http://www.bom.gov.au/fwo/IDW60701/IDW60701.95205.axf

JavaScript Object Notation format (JSON) in row-major order
http://www.bom.gov.au/fwo/IDW60701/IDW60701.95205.json